sensor_id;sensor_type;location;lat;lon;timestamp;P1;durP1;ratioP1;P2;durP2;ratioP2
55784;SDS011;41709;52.536;5.688;2023-08-06T00:02:24;8.38;;;6.93;;
55784;SDS011;41709;52.536;5.688;2023-08-06T00:04:49;12.27;;;7.30;;
55784;SDS011;41709;52.536;5.688;2023-08-06T00:07:15;8.40;;;6.93;;
55784;SDS011;41709;52.536;5.688;2023-08-06T00:09:40;8.25;;;6.53;;
55784;SDS011;41709;52.536;5.688;2023-08-06T00:12:06;7.70;;;6.90;;
55784;SDS011;41709;52.536;5.688;2023-08-06T00:14:32;7.90;;;6.60;;
55784;SDS011;41709;52.536;5.688;2023-08-06T00:16:58;8.30;;;6.95;;
55784;SDS011;41709;52.536;5.688;2023-08-06T00:19:23;9.23;;;6.35;;
55784;SDS011;41709;52.536;5.688;2023-08-06T00:21:49;8.73;;;6.55;;
55784;SDS011;41709;52.536;5.688;2023-08-06T00:24:15;8.25;;;7.30;;
55784;SDS011;41709;52.536;5.688;2023-08-06T00:26:40;8.95;;;7.03;;
55784;SDS011;41709;52.536;5.688;2023-08-06T00:29:06;7.80;;;6.63;;
55784;SDS011;41709;52.536;5.688;2023-08-06T00:31:31;7.25;;;6.43;;
55784;SDS011;41709;52.536;5.688;2023-08-06T00:33:57;7.15;;;6.28;;
55784;SDS011;41709;52.536;5.688;2023-08-06T00:36:22;9.80;;;7.40;;
55784;SDS011;41709;52.536;5.688;2023-08-06T00:38:48;8.90;;;7.85;;
55784;SDS011;41709;52.536;5.688;2023-08-06T00:41:14;7.53;;;6.68;;
55784;SDS011;41709;52.536;5.688;2023-08-06T00:43:39;8.73;;;6.90;;
55784;SDS011;41709;52.536;5.688;2023-08-06T00:46:05;8.80;;;7.25;;
55784;SDS011;41709;52.536;5.688;2023-08-06T00:48:31;8.25;;;7.38;;
55784;SDS011;41709;52.536;5.688;2023-08-06T00:50:57;8.45;;;6.90;;
55784;SDS011;41709;52.536;5.688;2023-08-06T00:53:23;8.38;;;6.72;;
55784;SDS011;41709;52.536;5.688;2023-08-06T00:55:49;11.23;;;7.57;;
55784;SDS011;41709;52.536;5.688;2023-08-06T00:58:16;8.02;;;6.97;;
55784;SDS011;41709;52.536;5.688;2023-08-06T01:00:41;9.40;;;7.95;;
55784;SDS011;41709;52.536;5.688;2023-08-06T01:03:07;13.48;;;7.95;;
55784;SDS011;41709;52.536;5.688;2023-08-06T01:05:33;7.82;;;7.03;;
55784;SDS011;41709;52.536;5.688;2023-08-06T01:08:06;9.30;;;6.88;;
55784;SDS011;41709;52.536;5.688;2023-08-06T01:10:51;9.18;;;7.50;;
55784;SDS011;41709;52.536;5.688;2023-08-06T01:13:42;11.45;;;6.85;;
55784;SDS011;41709;52.536;5.688;2023-08-06T01:16:12;8.90;;;8.00;;
55784;SDS011;41709;52.536;5.688;2023-08-06T01:18:40;11.13;;;7.63;;
55784;SDS011;41709;52.536;5.688;2023-08-06T01:21:08;10.25;;;7.50;;
55784;SDS011;41709;52.536;5.688;2023-08-06T01:23:34;10.63;;;8.50;;
55784;SDS011;41709;52.536;5.688;2023-08-06T01:26:05;10.23;;;8.00;;
55784;SDS011;41709;52.536;5.688;2023-08-06T01:29:06;10.23;;;7.70;;
55784;SDS011;41709;52.536;5.688;2023-08-06T01:31:53;7.82;;;7.10;;
55784;SDS011;41709;52.536;5.688;2023-08-06T01:34:22;19.55;;;8.45;;
55784;SDS011;41709;52.536;5.688;2023-08-06T01:36:52;10.30;;;7.72;;
55784;SDS011;41709;52.536;5.688;2023-08-06T01:41:47;8.90;;;6.60;;
55784;SDS011;41709;52.536;5.688;2023-08-06T01:44:13;9.55;;;7.22;;
55784;SDS011;41709;52.536;5.688;2023-08-06T01:46:39;10.13;;;8.10;;
55784;SDS011;41709;52.536;5.688;2023-08-06T01:49:05;8.52;;;7.05;;
55784;SDS011;41709;52.536;5.688;2023-08-06T01:51:30;8.85;;;7.30;;
55784;SDS011;41709;52.536;5.688;2023-08-06T01:53:56;11.07;;;7.13;;
55784;SDS011;41709;52.536;5.688;2023-08-06T01:56:21;8.93;;;7.78;;
55784;SDS011;41709;52.536;5.688;2023-08-06T01:58:47;7.78;;;6.97;;
55784;SDS011;41709;52.536;5.688;2023-08-06T02:01:12;8.05;;;7.03;;
55784;SDS011;41709;52.536;5.688;2023-08-06T02:03:38;10.00;;;7.50;;
55784;SDS011;41709;52.536;5.688;2023-08-06T02:06:03;10.00;;;7.25;;
55784;SDS011;41709;52.536;5.688;2023-08-06T02:08:29;11.20;;;7.90;;
55784;SDS011;41709;52.536;5.688;2023-08-06T02:10:55;10.40;;;8.82;;
55784;SDS011;41709;52.536;5.688;2023-08-06T02:13:20;10.25;;;7.63;;
55784;SDS011;41709;52.536;5.688;2023-08-06T02:15:46;8.40;;;6.95;;
55784;SDS011;41709;52.536;5.688;2023-08-06T02:18:13;9.43;;;6.93;;
55784;SDS011;41709;52.536;5.688;2023-08-06T02:20:39;12.65;;;7.43;;
55784;SDS011;41709;52.536;5.688;2023-08-06T02:23:05;11.82;;;7.07;;
55784;SDS011;41709;52.536;5.688;2023-08-06T02:25:31;10.52;;;7.68;;
55784;SDS011;41709;52.536;5.688;2023-08-06T02:27:57;9.13;;;8.15;;
55784;SDS011;41709;52.536;5.688;2023-08-06T02:30:22;8.75;;;7.82;;
55784;SDS011;41709;52.536;5.688;2023-08-06T02:32:48;10.48;;;7.57;;
55784;SDS011;41709;52.536;5.688;2023-08-06T02:35:13;7.63;;;6.63;;
55784;SDS011;41709;52.536;5.688;2023-08-06T02:37:39;10.98;;;6.72;;
55784;SDS011;41709;52.536;5.688;2023-08-06T02:40:04;9.95;;;6.47;;
55784;SDS011;41709;52.536;5.688;2023-08-06T02:42:30;9.50;;;7.10;;
55784;SDS011;41709;52.536;5.688;2023-08-06T02:44:56;12.25;;;8.27;;
55784;SDS011;41709;52.536;5.688;2023-08-06T02:47:22;9.02;;;7.28;;
55784;SDS011;41709;52.536;5.688;2023-08-06T02:49:47;7.70;;;6.97;;
55784;SDS011;41709;52.536;5.688;2023-08-06T02:52:16;8.05;;;7.25;;
55784;SDS011;41709;52.536;5.688;2023-08-06T02:54:42;7.78;;;7.00;;
55784;SDS011;41709;52.536;5.688;2023-08-06T02:57:08;10.15;;;7.95;;
55784;SDS011;41709;52.536;5.688;2023-08-06T02:59:33;9.52;;;7.13;;
55784;SDS011;41709;52.536;5.688;2023-08-06T03:01:59;9.38;;;5.70;;
55784;SDS011;41709;52.536;5.688;2023-08-06T03:04:24;10.88;;;7.45;;
55784;SDS011;41709;52.536;5.688;2023-08-06T03:06:50;9.57;;;6.63;;
55784;SDS011;41709;52.536;5.688;2023-08-06T03:09:16;7.90;;;7.07;;
55784;SDS011;41709;52.536;5.688;2023-08-06T03:11:42;8.07;;;6.75;;
55784;SDS011;41709;52.536;5.688;2023-08-06T03:14:08;8.82;;;6.82;;
55784;SDS011;41709;52.536;5.688;2023-08-06T03:16:34;9.70;;;6.45;;
55784;SDS011;41709;52.536;5.688;2023-08-06T03:19:00;8.25;;;6.85;;
55784;SDS011;41709;52.536;5.688;2023-08-06T03:21:25;8.40;;;7.07;;
55784;SDS011;41709;52.536;5.688;2023-08-06T03:23:51;10.25;;;6.72;;
55784;SDS011;41709;52.536;5.688;2023-08-06T03:26:16;10.45;;;7.30;;
55784;SDS011;41709;52.536;5.688;2023-08-06T03:28:42;7.97;;;6.85;;
55784;SDS011;41709;52.536;5.688;2023-08-06T03:31:08;10.27;;;6.75;;
55784;SDS011;41709;52.536;5.688;2023-08-06T03:33:34;12.55;;;6.85;;
55784;SDS011;41709;52.536;5.688;2023-08-06T03:35:59;7.93;;;6.68;;
55784;SDS011;41709;52.536;5.688;2023-08-06T03:38:25;8.73;;;6.88;;
55784;SDS011;41709;52.536;5.688;2023-08-06T03:40:51;8.43;;;7.05;;
55784;SDS011;41709;52.536;5.688;2023-08-06T03:43:16;7.70;;;6.80;;
55784;SDS011;41709;52.536;5.688;2023-08-06T03:45:42;7.88;;;6.68;;
55784;SDS011;41709;52.536;5.688;2023-08-06T03:48:08;10.02;;;7.35;;
55784;SDS011;41709;52.536;5.688;2023-08-06T03:50:34;8.35;;;7.55;;
55784;SDS011;41709;52.536;5.688;2023-08-06T03:53:00;8.98;;;7.22;;
55784;SDS011;41709;52.536;5.688;2023-08-06T03:55:25;8.15;;;7.30;;
55784;SDS011;41709;52.536;5.688;2023-08-06T03:57:51;9.65;;;7.32;;
55784;SDS011;41709;52.536;5.688;2023-08-06T04:00:17;8.25;;;7.40;;
55784;SDS011;41709;52.536;5.688;2023-08-06T04:02:42;12.40;;;8.60;;
55784;SDS011;41709;52.536;5.688;2023-08-06T04:05:08;8.20;;;7.40;;
55784;SDS011;41709;52.536;5.688;2023-08-06T04:07:34;10.27;;;8.40;;
55784;SDS011;41709;52.536;5.688;2023-08-06T04:10:00;8.82;;;6.82;;
55784;SDS011;41709;52.536;5.688;2023-08-06T04:12:28;11.60;;;8.55;;
55784;SDS011;41709;52.536;5.688;2023-08-06T04:14:54;13.93;;;8.23;;
55784;SDS011;41709;52.536;5.688;2023-08-06T04:17:20;10.38;;;9.00;;
55784;SDS011;41709;52.536;5.688;2023-08-06T04:19:53;11.00;;;8.63;;
55784;SDS011;41709;52.536;5.688;2023-08-06T04:22:20;11.63;;;8.27;;
55784;SDS011;41709;52.536;5.688;2023-08-06T04:24:46;13.68;;;9.35;;
55784;SDS011;41709;52.536;5.688;2023-08-06T04:27:12;10.13;;;8.13;;
55784;SDS011;41709;52.536;5.688;2023-08-06T04:29:39;8.65;;;7.60;;
55784;SDS011;41709;52.536;5.688;2023-08-06T04:32:05;9.10;;;8.18;;
55784;SDS011;41709;52.536;5.688;2023-08-06T04:34:32;8.85;;;7.82;;
55784;SDS011;41709;52.536;5.688;2023-08-06T04:36:58;10.48;;;8.38;;
55784;SDS011;41709;52.536;5.688;2023-08-06T04:39:24;11.50;;;8.90;;
55784;SDS011;41709;52.536;5.688;2023-08-06T04:41:49;10.82;;;8.02;;
55784;SDS011;41709;52.536;5.688;2023-08-06T04:44:15;9.18;;;8.20;;
55784;SDS011;41709;52.536;5.688;2023-08-06T04:46:40;9.50;;;8.50;;
55784;SDS011;41709;52.536;5.688;2023-08-06T04:49:06;11.93;;;8.50;;
55784;SDS011;41709;52.536;5.688;2023-08-06T04:51:32;10.23;;;9.15;;
55784;SDS011;41709;52.536;5.688;2023-08-06T04:53:57;16.55;;;10.20;;
55784;SDS011;41709;52.536;5.688;2023-08-06T04:56:23;11.60;;;9.10;;
55784;SDS011;41709;52.536;5.688;2023-08-06T04:58:49;10.68;;;9.00;;
55784;SDS011;41709;52.536;5.688;2023-08-06T05:01:15;13.13;;;9.65;;
55784;SDS011;41709;52.536;5.688;2023-08-06T05:03:41;14.10;;;9.85;;
55784;SDS011;41709;52.536;5.688;2023-08-06T05:06:06;12.07;;;9.90;;
55784;SDS011;41709;52.536;5.688;2023-08-06T05:08:32;14.90;;;10.13;;
55784;SDS011;41709;52.536;5.688;2023-08-06T05:10:58;11.98;;;9.07;;
55784;SDS011;41709;52.536;5.688;2023-08-06T05:13:23;10.27;;;9.10;;
55784;SDS011;41709;52.536;5.688;2023-08-06T05:15:50;11.73;;;8.98;;
55784;SDS011;41709;52.536;5.688;2023-08-06T05:18:16;10.82;;;9.23;;
55784;SDS011;41709;52.536;5.688;2023-08-06T05:20:42;12.15;;;9.98;;
55784;SDS011;41709;52.536;5.688;2023-08-06T05:23:08;12.95;;;9.60;;
55784;SDS011;41709;52.536;5.688;2023-08-06T05:25:37;10.82;;;9.45;;
55784;SDS011;41709;52.536;5.688;2023-08-06T05:28:03;12.57;;;10.52;;
55784;SDS011;41709;52.536;5.688;2023-08-06T05:30:29;10.60;;;8.90;;
55784;SDS011;41709;52.536;5.688;2023-08-06T05:32:55;10.77;;;9.45;;
55784;SDS011;41709;52.536;5.688;2023-08-06T05:35:21;12.52;;;9.25;;
55784;SDS011;41709;52.536;5.688;2023-08-06T05:37:47;12.50;;;9.70;;
55784;SDS011;41709;52.536;5.688;2023-08-06T05:40:13;10.82;;;9.00;;
55784;SDS011;41709;52.536;5.688;2023-08-06T05:42:39;11.02;;;9.85;;
55784;SDS011;41709;52.536;5.688;2023-08-06T05:45:05;16.20;;;10.43;;
55784;SDS011;41709;52.536;5.688;2023-08-06T05:47:32;11.35;;;8.95;;
55784;SDS011;41709;52.536;5.688;2023-08-06T05:49:57;12.52;;;8.95;;
55784;SDS011;41709;52.536;5.688;2023-08-06T05:52:23;12.52;;;9.85;;
55784;SDS011;41709;52.536;5.688;2023-08-06T05:54:49;11.18;;;8.85;;
55784;SDS011;41709;52.536;5.688;2023-08-06T05:57:15;12.30;;;9.95;;
55784;SDS011;41709;52.536;5.688;2023-08-06T05:59:40;11.85;;;9.70;;
55784;SDS011;41709;52.536;5.688;2023-08-06T06:02:06;12.15;;;9.80;;
55784;SDS011;41709;52.536;5.688;2023-08-06T06:04:32;11.07;;;9.98;;
55784;SDS011;41709;52.536;5.688;2023-08-06T06:06:57;11.15;;;9.95;;
55784;SDS011;41709;52.536;5.688;2023-08-06T06:09:23;12.82;;;9.80;;
55784;SDS011;41709;52.536;5.688;2023-08-06T06:11:49;14.15;;;10.57;;
55784;SDS011;41709;52.536;5.688;2023-08-06T06:14:15;10.38;;;9.27;;
55784;SDS011;41709;52.536;5.688;2023-08-06T06:16:44;11.73;;;10.23;;
55784;SDS011;41709;52.536;5.688;2023-08-06T06:19:10;11.10;;;9.48;;
55784;SDS011;41709;52.536;5.688;2023-08-06T06:21:36;13.18;;;10.32;;
55784;SDS011;41709;52.536;5.688;2023-08-06T06:24:03;12.48;;;10.23;;
55784;SDS011;41709;52.536;5.688;2023-08-06T06:26:30;11.77;;;10.35;;
55784;SDS011;41709;52.536;5.688;2023-08-06T06:28:56;13.73;;;9.73;;
55784;SDS011;41709;52.536;5.688;2023-08-06T06:31:21;11.23;;;9.93;;
55784;SDS011;41709;52.536;5.688;2023-08-06T06:33:47;13.93;;;9.90;;
55784;SDS011;41709;52.536;5.688;2023-08-06T06:36:12;12.05;;;10.77;;
55784;SDS011;41709;52.536;5.688;2023-08-06T06:38:38;17.30;;;9.93;;
55784;SDS011;41709;52.536;5.688;2023-08-06T06:41:04;11.50;;;10.15;;
55784;SDS011;41709;52.536;5.688;2023-08-06T06:43:29;11.75;;;9.98;;
55784;SDS011;41709;52.536;5.688;2023-08-06T06:45:55;12.95;;;9.95;;
55784;SDS011;41709;52.536;5.688;2023-08-06T06:50:53;11.25;;;10.05;;
55784;SDS011;41709;52.536;5.688;2023-08-06T06:53:19;13.90;;;11.20;;
55784;SDS011;41709;52.536;5.688;2023-08-06T06:55:45;14.45;;;10.52;;
55784;SDS011;41709;52.536;5.688;2023-08-06T06:58:14;11.40;;;10.30;;
55784;SDS011;41709;52.536;5.688;2023-08-06T07:00:41;11.13;;;10.00;;
55784;SDS011;41709;52.536;5.688;2023-08-06T07:03:06;12.30;;;10.65;;
55784;SDS011;41709;52.536;5.688;2023-08-06T07:05:32;10.75;;;9.65;;
55784;SDS011;41709;52.536;5.688;2023-08-06T07:07:57;12.02;;;9.73;;
55784;SDS011;41709;52.536;5.688;2023-08-06T07:10:23;11.93;;;10.65;;
55784;SDS011;41709;52.536;5.688;2023-08-06T07:12:49;11.23;;;10.10;;
55784;SDS011;41709;52.536;5.688;2023-08-06T07:15:14;10.95;;;9.40;;
55784;SDS011;41709;52.536;5.688;2023-08-06T07:17:42;15.07;;;10.73;;
55784;SDS011;41709;52.536;5.688;2023-08-06T07:20:08;12.77;;;9.43;;
55784;SDS011;41709;52.536;5.688;2023-08-06T07:22:34;12.90;;;9.90;;
55784;SDS011;41709;52.536;5.688;2023-08-06T07:24:59;11.32;;;10.18;;
55784;SDS011;41709;52.536;5.688;2023-08-06T07:27:25;10.70;;;9.30;;
55784;SDS011;41709;52.536;5.688;2023-08-06T07:29:50;12.40;;;9.40;;
55784;SDS011;41709;52.536;5.688;2023-08-06T07:32:16;12.30;;;9.93;;
55784;SDS011;41709;52.536;5.688;2023-08-06T07:34:42;12.90;;;9.80;;
55784;SDS011;41709;52.536;5.688;2023-08-06T07:37:07;12.60;;;9.90;;
55784;SDS011;41709;52.536;5.688;2023-08-06T07:39:33;11.48;;;9.52;;
55784;SDS011;41709;52.536;5.688;2023-08-06T07:41:58;12.20;;;10.55;;
55784;SDS011;41709;52.536;5.688;2023-08-06T07:44:24;13.93;;;11.82;;
55784;SDS011;41709;52.536;5.688;2023-08-06T07:46:50;13.93;;;12.35;;
55784;SDS011;41709;52.536;5.688;2023-08-06T07:49:15;16.52;;;13.40;;
55784;SDS011;41709;52.536;5.688;2023-08-06T07:51:41;17.33;;;14.07;;
55784;SDS011;41709;52.536;5.688;2023-08-06T07:54:06;15.98;;;14.23;;
55784;SDS011;41709;52.536;5.688;2023-08-06T07:56:32;15.27;;;13.30;;
55784;SDS011;41709;52.536;5.688;2023-08-06T07:58:58;14.50;;;13.00;;
55784;SDS011;41709;52.536;5.688;2023-08-06T08:01:23;14.93;;;12.93;;
55784;SDS011;41709;52.536;5.688;2023-08-06T08:03:49;15.65;;;12.00;;
55784;SDS011;41709;52.536;5.688;2023-08-06T08:06:15;15.77;;;14.10;;
55784;SDS011;41709;52.536;5.688;2023-08-06T08:08:40;16.02;;;14.43;;
55784;SDS011;41709;52.536;5.688;2023-08-06T08:11:06;19.80;;;15.63;;
55784;SDS011;41709;52.536;5.688;2023-08-06T08:13:31;15.02;;;13.52;;
55784;SDS011;41709;52.536;5.688;2023-08-06T08:15:57;16.38;;;12.63;;
55784;SDS011;41709;52.536;5.688;2023-08-06T08:18:24;14.43;;;12.63;;
55784;SDS011;41709;52.536;5.688;2023-08-06T08:20:50;14.88;;;12.65;;
55784;SDS011;41709;52.536;5.688;2023-08-06T08:23:15;13.00;;;11.60;;
55784;SDS011;41709;52.536;5.688;2023-08-06T08:25:41;12.30;;;11.10;;
55784;SDS011;41709;52.536;5.688;2023-08-06T08:28:06;12.35;;;11.05;;
55784;SDS011;41709;52.536;5.688;2023-08-06T08:30:32;13.40;;;11.88;;
55784;SDS011;41709;52.536;5.688;2023-08-06T08:32:58;13.80;;;12.18;;
55784;SDS011;41709;52.536;5.688;2023-08-06T08:35:23;13.43;;;12.02;;
55784;SDS011;41709;52.536;5.688;2023-08-06T08:37:49;14.90;;;13.35;;
55784;SDS011;41709;52.536;5.688;2023-08-06T08:40:15;14.23;;;12.02;;
55784;SDS011;41709;52.536;5.688;2023-08-06T08:42:41;13.85;;;11.98;;
55784;SDS011;41709;52.536;5.688;2023-08-06T08:45:12;13.88;;;12.10;;
55784;SDS011;41709;52.536;5.688;2023-08-06T08:47:39;14.80;;;12.02;;
55784;SDS011;41709;52.536;5.688;2023-08-06T08:50:07;12.43;;;11.13;;
55784;SDS011;41709;52.536;5.688;2023-08-06T08:52:35;13.27;;;11.68;;
55784;SDS011;41709;52.536;5.688;2023-08-06T08:55:02;14.93;;;11.65;;
55784;SDS011;41709;52.536;5.688;2023-08-06T08:57:28;14.30;;;11.65;;
55784;SDS011;41709;52.536;5.688;2023-08-06T08:59:54;14.57;;;12.90;;
55784;SDS011;41709;52.536;5.688;2023-08-06T09:02:20;14.05;;;12.60;;
55784;SDS011;41709;52.536;5.688;2023-08-06T09:04:47;13.32;;;11.93;;
55784;SDS011;41709;52.536;5.688;2023-08-06T09:07:16;14.18;;;12.70;;
55784;SDS011;41709;52.536;5.688;2023-08-06T09:09:44;14.38;;;11.95;;
55784;SDS011;41709;52.536;5.688;2023-08-06T09:12:16;12.77;;;11.48;;
55784;SDS011;41709;52.536;5.688;2023-08-06T09:14:42;12.63;;;11.43;;
55784;SDS011;41709;52.536;5.688;2023-08-06T09:17:08;16.15;;;12.27;;
55784;SDS011;41709;52.536;5.688;2023-08-06T09:19:35;12.50;;;11.23;;
55784;SDS011;41709;52.536;5.688;2023-08-06T09:22:02;15.32;;;11.32;;
55784;SDS011;41709;52.536;5.688;2023-08-06T09:24:28;13.52;;;11.68;;
55784;SDS011;41709;52.536;5.688;2023-08-06T09:26:54;13.52;;;12.13;;
55784;SDS011;41709;52.536;5.688;2023-08-06T09:29:20;12.68;;;11.38;;
55784;SDS011;41709;52.536;5.688;2023-08-06T09:31:49;16.42;;;12.00;;
55784;SDS011;41709;52.536;5.688;2023-08-06T09:34:19;12.57;;;10.52;;
55784;SDS011;41709;52.536;5.688;2023-08-06T09:36:56;13.18;;;11.70;;
55784;SDS011;41709;52.536;5.688;2023-08-06T09:39:28;12.93;;;10.38;;
55784;SDS011;41709;52.536;5.688;2023-08-06T09:41:55;12.00;;;10.73;;
55784;SDS011;41709;52.536;5.688;2023-08-06T09:44:26;10.93;;;9.82;;
55784;SDS011;41709;52.536;5.688;2023-08-06T09:46:55;14.52;;;11.43;;
55784;SDS011;41709;52.536;5.688;2023-08-06T09:49:25;12.82;;;10.75;;
55784;SDS011;41709;52.536;5.688;2023-08-06T09:51:52;12.70;;;11.48;;
55784;SDS011;41709;52.536;5.688;2023-08-06T09:54:21;11.47;;;10.33;;
55784;SDS011;41709;52.536;5.688;2023-08-06T09:56:48;12.13;;;10.95;;
55784;SDS011;41709;52.536;5.688;2023-08-06T09:59:14;11.02;;;10.00;;
55784;SDS011;41709;52.536;5.688;2023-08-06T10:01:41;10.68;;;9.68;;
55784;SDS011;41709;52.536;5.688;2023-08-06T10:04:06;9.65;;;8.77;;
55784;SDS011;41709;52.536;5.688;2023-08-06T10:06:33;12.27;;;10.65;;
55784;SDS011;41709;52.536;5.688;2023-08-06T10:09:01;9.73;;;8.82;;
55784;SDS011;41709;52.536;5.688;2023-08-06T10:11:27;9.88;;;8.60;;
55784;SDS011;41709;52.536;5.688;2023-08-06T10:14:02;9.27;;;8.38;;
55784;SDS011;41709;52.536;5.688;2023-08-06T10:16:35;10.98;;;9.43;;
55784;SDS011;41709;52.536;5.688;2023-08-06T10:19:05;9.63;;;8.70;;
55784;SDS011;41709;52.536;5.688;2023-08-06T10:21:34;9.88;;;8.88;;
55784;SDS011;41709;52.536;5.688;2023-08-06T10:24:00;9.25;;;8.35;;
55784;SDS011;41709;52.536;5.688;2023-08-06T10:26:27;12.00;;;9.38;;
55784;SDS011;41709;52.536;5.688;2023-08-06T10:28:53;10.18;;;8.93;;
55784;SDS011;41709;52.536;5.688;2023-08-06T10:31:19;10.65;;;9.00;;
55784;SDS011;41709;52.536;5.688;2023-08-06T10:33:45;10.40;;;9.32;;
55784;SDS011;41709;52.536;5.688;2023-08-06T10:36:12;10.07;;;9.13;;
55784;SDS011;41709;52.536;5.688;2023-08-06T10:38:45;9.45;;;8.45;;
55784;SDS011;41709;52.536;5.688;2023-08-06T10:41:31;9.43;;;8.52;;
55784;SDS011;41709;52.536;5.688;2023-08-06T10:44:07;9.50;;;8.50;;
55784;SDS011;41709;52.536;5.688;2023-08-06T10:46:34;10.73;;;8.25;;
55784;SDS011;41709;52.536;5.688;2023-08-06T10:49:00;11.50;;;8.43;;
55784;SDS011;41709;52.536;5.688;2023-08-06T10:51:26;15.40;;;9.25;;
55784;SDS011;41709;52.536;5.688;2023-08-06T10:53:52;10.10;;;9.10;;
55784;SDS011;41709;52.536;5.688;2023-08-06T10:56:19;8.40;;;7.25;;
55784;SDS011;41709;52.536;5.688;2023-08-06T10:58:49;8.20;;;7.20;;
55784;SDS011;41709;52.536;5.688;2023-08-06T11:01:15;8.23;;;6.57;;
55784;SDS011;41709;52.536;5.688;2023-08-06T11:03:42;7.25;;;6.45;;
55784;SDS011;41709;52.536;5.688;2023-08-06T11:06:08;8.20;;;6.93;;
55784;SDS011;41709;52.536;5.688;2023-08-06T11:08:35;7.30;;;6.60;;
55784;SDS011;41709;52.536;5.688;2023-08-06T11:11:09;8.13;;;7.05;;
55784;SDS011;41709;52.536;5.688;2023-08-06T11:13:39;10.02;;;6.95;;
55784;SDS011;41709;52.536;5.688;2023-08-06T11:16:05;8.93;;;7.43;;
55784;SDS011;41709;52.536;5.688;2023-08-06T11:18:32;7.97;;;7.18;;
55784;SDS011;41709;52.536;5.688;2023-08-06T11:20:59;7.55;;;6.75;;
55784;SDS011;41709;52.536;5.688;2023-08-06T11:23:26;7.65;;;6.85;;
55784;SDS011;41709;52.536;5.688;2023-08-06T11:25:53;9.73;;;6.87;;
55784;SDS011;41709;52.536;5.688;2023-08-06T11:28:20;6.97;;;6.28;;
55784;SDS011;41709;52.536;5.688;2023-08-06T11:30:48;8.85;;;5.65;;
55784;SDS011;41709;52.536;5.688;2023-08-06T11:33:19;8.18;;;4.80;;
55784;SDS011;41709;52.536;5.688;2023-08-06T11:35:55;5.57;;;4.15;;
55784;SDS011;41709;52.536;5.688;2023-08-06T11:38:22;4.68;;;3.30;;
55784;SDS011;41709;52.536;5.688;2023-08-06T11:40:50;3.55;;;3.00;;
55784;SDS011;41709;52.536;5.688;2023-08-06T11:43:17;3.92;;;3.08;;
55784;SDS011;41709;52.536;5.688;2023-08-06T11:45:44;3.03;;;2.65;;
55784;SDS011;41709;52.536;5.688;2023-08-06T11:48:10;3.42;;;2.67;;
55784;SDS011;41709;52.536;5.688;2023-08-06T11:50:36;4.78;;;3.00;;
55784;SDS011;41709;52.536;5.688;2023-08-06T11:53:06;2.80;;;2.38;;
55784;SDS011;41709;52.536;5.688;2023-08-06T11:55:31;3.22;;;2.30;;
55784;SDS011;41709;52.536;5.688;2023-08-06T11:57:58;4.22;;;2.65;;
55784;SDS011;41709;52.536;5.688;2023-08-06T12:00:28;2.47;;;2.00;;
55784;SDS011;41709;52.536;5.688;2023-08-06T12:02:54;3.42;;;2.03;;
55784;SDS011;41709;52.536;5.688;2023-08-06T12:05:21;2.72;;;1.67;;
55784;SDS011;41709;52.536;5.688;2023-08-06T12:07:58;2.40;;;1.80;;
55784;SDS011;41709;52.536;5.688;2023-08-06T12:10:26;3.05;;;1.65;;
55784;SDS011;41709;52.536;5.688;2023-08-06T12:12:53;3.38;;;1.70;;
55784;SDS011;41709;52.536;5.688;2023-08-06T12:15:19;1.10;;;1.00;;
55784;SDS011;41709;52.536;5.688;2023-08-06T12:17:45;1.73;;;1.45;;
55784;SDS011;41709;52.536;5.688;2023-08-06T12:20:10;1.70;;;1.05;;
55784;SDS011;41709;52.536;5.688;2023-08-06T12:22:36;1.65;;;1.15;;
55784;SDS011;41709;52.536;5.688;2023-08-06T12:25:05;1.63;;;0.97;;
55784;SDS011;41709;52.536;5.688;2023-08-06T12:27:33;2.25;;;1.08;;
55784;SDS011;41709;52.536;5.688;2023-08-06T12:30:03;2.05;;;1.15;;
55784;SDS011;41709;52.536;5.688;2023-08-06T12:32:29;1.38;;;1.10;;
55784;SDS011;41709;52.536;5.688;2023-08-06T12:34:55;1.40;;;1.27;;
55784;SDS011;41709;52.536;5.688;2023-08-06T12:37:20;3.35;;;1.08;;
55784;SDS011;41709;52.536;5.688;2023-08-06T12:39:46;1.35;;;1.25;;
55784;SDS011;41709;52.536;5.688;2023-08-06T12:42:12;3.42;;;1.10;;
55784;SDS011;41709;52.536;5.688;2023-08-06T12:44:37;5.95;;;1.42;;
55784;SDS011;41709;52.536;5.688;2023-08-06T12:47:03;1.45;;;1.02;;
55784;SDS011;41709;52.536;5.688;2023-08-06T12:49:29;2.35;;;1.30;;
55784;SDS011;41709;52.536;5.688;2023-08-06T12:51:56;1.88;;;0.90;;
55784;SDS011;41709;52.536;5.688;2023-08-06T12:54:24;1.73;;;0.90;;
55784;SDS011;41709;52.536;5.688;2023-08-06T12:56:50;1.98;;;0.80;;
55784;SDS011;41709;52.536;5.688;2023-08-06T12:59:16;0.80;;;0.80;;
55784;SDS011;41709;52.536;5.688;2023-08-06T13:01:43;1.08;;;0.60;;
55784;SDS011;41709;52.536;5.688;2023-08-06T13:04:09;1.58;;;1.13;;
55784;SDS011;41709;52.536;5.688;2023-08-06T13:06:35;1.20;;;0.80;;
55784;SDS011;41709;52.536;5.688;2023-08-06T13:09:05;0.55;;;0.55;;
55784;SDS011;41709;52.536;5.688;2023-08-06T13:11:31;1.33;;;0.50;;
55784;SDS011;41709;52.536;5.688;2023-08-06T13:14:03;2.70;;;0.70;;
55784;SDS011;41709;52.536;5.688;2023-08-06T13:16:30;2.08;;;0.55;;
55784;SDS011;41709;52.536;5.688;2023-08-06T13:18:56;0.63;;;0.50;;
55784;SDS011;41709;52.536;5.688;2023-08-06T13:21:21;1.05;;;0.50;;
55784;SDS011;41709;52.536;5.688;2023-08-06T13:23:47;0.52;;;0.50;;
55784;SDS011;41709;52.536;5.688;2023-08-06T13:26:13;2.45;;;0.60;;
55784;SDS011;41709;52.536;5.688;2023-08-06T13:28:38;0.50;;;0.43;;
55784;SDS011;41709;52.536;5.688;2023-08-06T13:31:04;2.50;;;0.57;;
55784;SDS011;41709;52.536;5.688;2023-08-06T13:33:30;1.00;;;0.50;;
55784;SDS011;41709;52.536;5.688;2023-08-06T13:35:55;1.02;;;0.47;;
55784;SDS011;41709;52.536;5.688;2023-08-06T13:38:21;0.88;;;0.60;;
55784;SDS011;41709;52.536;5.688;2023-08-06T13:40:46;1.40;;;0.60;;
55784;SDS011;41709;52.536;5.688;2023-08-06T13:43:13;1.83;;;0.50;;
55784;SDS011;41709;52.536;5.688;2023-08-06T13:45:40;1.20;;;0.70;;
55784;SDS011;41709;52.536;5.688;2023-08-06T13:48:06;0.80;;;0.60;;
55784;SDS011;41709;52.536;5.688;2023-08-06T13:50:31;0.55;;;0.47;;
55784;SDS011;41709;52.536;5.688;2023-08-06T13:52:57;0.55;;;0.52;;
55784;SDS011;41709;52.536;5.688;2023-08-06T13:55:22;2.72;;;0.77;;
55784;SDS011;41709;52.536;5.688;2023-08-06T13:57:48;0.93;;;0.50;;
55784;SDS011;41709;52.536;5.688;2023-08-06T14:00:14;0.95;;;0.73;;
55784;SDS011;41709;52.536;5.688;2023-08-06T14:02:40;0.73;;;0.50;;
55784;SDS011;41709;52.536;5.688;2023-08-06T14:05:08;1.73;;;0.57;;
55784;SDS011;41709;52.536;5.688;2023-08-06T14:07:34;1.05;;;0.85;;
55784;SDS011;41709;52.536;5.688;2023-08-06T14:10:00;2.28;;;0.70;;
55784;SDS011;41709;52.536;5.688;2023-08-06T14:12:25;1.33;;;1.00;;
55784;SDS011;41709;52.536;5.688;2023-08-06T14:14:51;1.63;;;1.10;;
55784;SDS011;41709;52.536;5.688;2023-08-06T14:17:16;1.25;;;0.90;;
55784;SDS011;41709;52.536;5.688;2023-08-06T14:19:42;1.92;;;1.17;;
55784;SDS011;41709;52.536;5.688;2023-08-06T14:22:07;1.60;;;1.10;;
55784;SDS011;41709;52.536;5.688;2023-08-06T14:24:33;1.30;;;0.88;;
55784;SDS011;41709;52.536;5.688;2023-08-06T14:26:59;1.95;;;1.05;;
55784;SDS011;41709;52.536;5.688;2023-08-06T14:29:24;2.53;;;1.10;;
55784;SDS011;41709;52.536;5.688;2023-08-06T14:31:50;1.67;;;0.95;;
55784;SDS011;41709;52.536;5.688;2023-08-06T14:34:16;2.50;;;1.33;;
55784;SDS011;41709;52.536;5.688;2023-08-06T14:36:42;2.05;;;1.23;;
55784;SDS011;41709;52.536;5.688;2023-08-06T14:39:07;1.65;;;1.10;;
55784;SDS011;41709;52.536;5.688;2023-08-06T14:41:33;5.03;;;1.20;;